Time;durP1;ratioP1;P1;durP2;ratioP2;P2;SDS_P1;SDS_P2;PMS_P1;PMS_P2;Temp;Humidity;BMP_temperature;BMP_pressure;BME280_temperature;BME280_humidity;BME280_pressure;Samples;Min_cycle;Max_cycle;Signal;HPM_P1;HPM_P2
2022/10/24 00:00:29;;;;;;;12.88;3.97;;;;;;;13.82;68.98;92835.13;2070820;69;20575;-76
2022/10/24 00:02:55;;;;;;;10.88;3.80;;;;;;;13.74;68.44;92826.97;2070934;69;20190;-76
2022/10/24 00:05:20;;;;;;;12.60;3.90;;;;;;;13.70;68.76;92823.94;2064795;69;20148;-74
2022/10/24 00:07:48;;;;;;;14.02;3.90;;;;;;;13.58;69.49;92818.38;2070889;69;20616;-75
2022/10/24 00:10:14;;;;;;;14.60;4.03;;;;;;;13.62;69.55;92832.75;2067632;69;20238;-76
2022/10/24 00:12:39;;;;;;;13.65;3.78;;;;;;;13.66;68.99;92844.28;2070920;69;20188;-76
2022/10/24 00:15:06;;;;;;;13.32;3.65;;;;;;;13.66;69.13;92832.97;2071102;69;20245;-75
2022/10/24 00:17:33;;;;;;;18.30;4.22;;;;;;;13.62;71.02;92823.53;2070865;69;20167;-75
2022/10/24 00:19:59;;;;;;;11.82;3.58;;;;;;;13.74;68.03;92832.63;2071022;69;20163;-75
2022/10/24 00:22:27;;;;;;;10.75;3.17;;;;;;;13.76;68.17;92841.22;2070982;69;20522;-75
2022/10/24 00:24:59;;;;;;;11.05;3.20;;;;;;;13.77;68.45;92841.97;2071605;69;20194;-76
2022/10/24 00:27:24;;;;;;;14.07;4.20;;;;;;;13.34;71.84;92848.97;2071710;69;20196;-76
2022/10/24 00:29:50;;;;;;;13.43;5.00;;;;;;;13.35;71.15;92858.91;2068150;69;20201;-76
2022/10/24 00:32:16;;;;;;;11.48;4.88;;;;;;;13.51;71.23;92859.03;2071325;69;20152;-76
2022/10/24 00:34:41;;;;;;;15.10;4.47;;;;;;;13.64;69.63;92863.22;2071470;69;20188;-76
2022/10/24 00:37:07;;;;;;;12.30;4.15;;;;;;;13.69;69.90;92842.25;2071538;69;20147;-76
2022/10/24 00:39:33;;;;;;;12.00;4.30;;;;;;;13.67;70.17;92823.09;2071596;69;20156;-76
2022/10/24 00:41:58;;;;;;;10.20;4.13;;;;;;;13.68;69.62;92824.56;2071664;69;20145;-75
2022/10/24 00:44:24;;;;;;;17.63;4.30;;;;;;;13.58;71.30;92841.03;2071547;69;20320;-76
2022/10/24 00:47:01;;;;;;;11.15;4.15;;;;;;;13.68;69.65;92850.03;2067945;69;20594;-75
2022/10/24 00:49:47;;;;;;;14.27;4.53;;;;;;;13.72;69.69;92849.50;2071605;69;20133;-75
2022/10/24 00:52:15;;;;;;;12.32;3.85;;;;;;;13.77;67.56;92850.44;2071463;69;20152;-76
2022/10/24 00:54:41;;;;;;;18.95;4.20;;;;;;;13.58;70.22;92852.34;2071524;69;20140;-76
2022/10/24 00:57:21;;;;;;;10.63;3.85;;;;;;;13.56;70.48;92846.59;2068146;69;20160;-75
2022/10/24 00:59:53;;;;;;;16.80;3.97;;;;;;;13.53;71.78;92839.34;2072130;69;20266;-75
2022/10/24 01:02:20;;;;;;;8.45;3.70;;;;;;;13.65;69.37;92834.31;2072472;69;20140;-75
2022/10/24 01:04:47;;;;;;;11.57;3.55;;;;;;;13.72;70.17;92853.06;2073742;69;20218;-75
2022/10/24 01:07:31;;;;;;;14.82;4.20;;;;;;;13.76;69.74;92858.19;2073660;69;20247;-76
2022/10/24 01:10:17;;;;;;;12.52;4.00;;;;;;;13.48;71.39;92861.03;2072628;69;20155;-74
2022/10/24 01:13:07;;;;;;;12.07;3.70;;;;;;;13.52;71.47;92856.94;2069270;69;20168;-75
2022/10/24 01:15:56;;;;;;;13.45;3.97;;;;;;;13.43;72.52;92847.31;2071906;69;20167;-76
2022/10/24 01:18:39;;;;;;;16.10;3.45;;;;;;;13.36;73.56;92849.06;2063293;69;20643;-76
2022/10/24 01:21:13;;;;;;;13.18;3.83;;;;;;;13.63;71.88;92847.63;2071987;69;20642;-75
2022/10/24 01:24:03;;;;;;;9.95;3.22;;;;;;;13.71;69.98;92843.13;2072118;69;20209;-76
2022/10/24 01:26:35;;;;;;;9.40;3.03;;;;;;;13.72;69.91;92843.84;2071952;69;20152;-76
2022/10/24 01:29:17;;;;;;;18.70;3.60;;;;;;;13.78;70.08;92854.72;2071857;69;20247;-75
2022/10/24 01:32:02;;;;;;;13.90;3.90;;;;;;;13.58;71.61;92845.94;2071523;69;20202;-75
2022/10/24 01:34:41;;;;;;;11.07;3.33;;;;;;;13.64;71.21;92846.97;2071512;69;20148;-76
2022/10/24 01:37:20;;;;;;;12.38;3.50;;;;;;;13.68;70.26;92835.88;2068471;69;20187;-76
2022/10/24 01:39:52;;;;;;;11.38;3.60;;;;;;;13.78;70.36;92832.81;2071780;69;20315;-76
2022/10/24 01:42:21;;;;;;;13.20;4.25;;;;;;;13.80;70.02;92830.13;2071440;69;20152;-75
2022/10/24 01:44:50;;;;;;;10.40;3.50;;;;;;;13.75;71.12;92847.53;2071635;69;20156;-76
2022/10/24 01:47:20;;;;;;;12.68;3.90;;;;;;;13.50;73.18;92851.16;2071260;69;20602;-76
2022/10/24 01:49:57;;;;;;;13.52;3.63;;;;;;;13.73;69.76;92846.03;2071580;69;20595;-76
2022/10/24 01:52:26;;;;;;;15.13;3.85;;;;;;;13.76;69.39;92846.16;2068146;69;20223;-75
2022/10/24 01:54:53;;;;;;;11.50;3.95;;;;;;;13.81;69.38;92845.72;2071458;69;20243;-76
2022/10/24 01:57:19;;;;;;;12.60;3.38;;;;;;;13.79;69.90;92848.47;2071507;69;20140;-76
2022/10/24 01:59:47;;;;;;;13.48;3.95;;;;;;;13.80;70.24;92844.28;2071485;69;20201;-77
2022/10/24 02:02:41;;;;;;;11.98;3.30;;;;;;;13.81;69.94;92845.00;2071372;69;20209;-76
2022/10/24 02:05:19;;;;;;;17.92;3.70;;;;;;;13.81;70.34;92845.72;2070845;69;20140;-76
2022/10/24 02:07:50;;;;;;;19.10;3.75;;;;;;;13.76;68.71;92852.53;2071593;69;20215;-75
2022/10/24 02:10:21;;;;;;;11.07;3.72;;;;;;;13.69;71.50;92851.47;2071643;69;20210;-76
2022/10/24 02:12:56;;;;;;;14.20;3.85;;;;;;;13.78;70.24;92849.81;2071029;69;20148;-75
2022/10/24 02:15:27;;;;;;;11.48;3.67;;;;;;;13.85;68.44;92848.75;2070477;69;20634;-75
2022/10/24 02:17:55;;;;;;;16.02;3.80;;;;;;;13.63;72.27;92845.53;2067982;69;20168;-75
2022/10/24 02:20:32;;;;;;;9.10;3.55;;;;;;;13.62;72.26;92834.84;2071577;69;20175;-77
2022/10/24 02:23:09;;;;;;;14.23;4.30;;;;;;;13.75;70.81;92834.09;2071470;69;20245;-77
2022/10/24 02:25:40;;;;;;;12.43;3.70;;;;;;;13.81;69.98;92830.84;2071635;69;20168;-76
2022/10/24 02:28:11;;;;;;;9.98;3.03;;;;;;;13.66;71.65;92824.47;2071747;69;20212;-76
2022/10/24 02:30:59;;;;;;;14.38;3.55;;;;;;;13.80;70.83;92832.94;2071511;69;20159;-76
2022/10/24 02:33:27;;;;;;;10.10;3.45;;;;;;;13.83;70.64;92825.28;2071342;69;20234;-76
2022/10/24 02:35:55;;;;;;;11.05;4.07;;;;;;;13.60;73.35;92829.78;2068346;69;20232;-77
2022/10/24 02:38:26;;;;;;;16.48;3.90;;;;;;;13.41;73.37;92824.56;2068165;69;20144;-76
2022/10/24 02:40:53;;;;;;;11.60;3.80;;;;;;;13.64;71.54;92821.53;2071694;69;20146;-75
2022/10/24 02:43:21;;;;;;;12.10;3.53;;;;;;;13.70;71.96;92821.13;2071715;69;20593;-76
2022/10/24 02:45:50;;;;;;;9.95;3.40;;;;;;;13.77;70.39;92819.31;2071469;69;20167;-76
2022/10/24 02:48:20;;;;;;;9.98;3.35;;;;;;;13.76;71.18;92818.59;2071296;69;20170;-76
2022/10/24 02:50:46;;;;;;;11.35;3.40;;;;;;;13.80;69.98;92820.91;2071557;69;20622;-75
2022/10/24 02:53:18;;;;;;;11.63;3.83;;;;;;;13.75;72.20;92830.53;2071373;69;20167;-75
2022/10/24 02:55:44;;;;;;;11.18;3.42;;;;;;;13.72;69.23;92829.69;2071310;69;20163;-75
2022/10/24 02:58:10;;;;;;;11.30;3.42;;;;;;;13.75;69.89;92827.72;2068210;69;20144;-75
2022/10/24 03:00:36;;;;;;;11.73;4.22;;;;;;;13.71;72.23;92833.91;2067917;69;20136;-76
2022/10/24 03:03:05;;;;;;;11.02;4.07;;;;;;;13.72;70.71;92833.25;2071388;69;20510;-76
2022/10/24 03:05:30;;;;;;;13.60;4.25;;;;;;;13.75;70.86;92833.38;2071696;69;20244;-75
2022/10/24 03:07:56;;;;;;;11.25;3.97;;;;;;;13.76;71.62;92841.22;2071543;69;20169;-75
2022/10/24 03:10:21;;;;;;;13.90;3.80;;;;;;;13.75;70.49;92845.44;2071545;69;20152;-75
2022/10/24 03:12:47;;;;;;;6.18;3.25;;;;;;;13.81;70.22;92848.56;2071631;69;20136;-75
2022/10/24 03:15:13;;;;;;;12.90;3.92;;;;;;;13.80;69.19;92855.59;2071791;69;20595;-75
2022/10/24 03:17:39;;;;;;;13.38;3.70;;;;;;;13.63;73.96;92856.09;2071485;69;20645;-76
2022/10/24 03:20:06;;;;;;;12.57;4.20;;;;;;;13.65;72.17;92856.19;2071651;69;20204;-76
2022/10/24 03:22:31;;;;;;;14.75;3.83;;;;;;;13.72;71.63;92858.72;2071424;69;20194;-77
2022/10/24 03:25:00;;;;;;;16.75;4.68;;;;;;;13.73;71.56;92863.00;2071504;69;20144;-77
2022/10/24 03:27:26;;;;;;;14.63;4.43;;;;;;;13.71;70.42;92851.59;2071558;69;20144;-76
2022/10/24 03:29:51;;;;;;;11.20;4.50;;;;;;;13.80;70.36;92860.50;2071601;69;20143;-77
2022/10/24 03:32:17;;;;;;;11.63;4.55;;;;;;;13.79;71.51;92856.94;2071457;69;20256;-76
2022/10/24 03:34:43;;;;;;;15.82;6.60;;;;;;;13.77;70.68;92858.94;2071504;69;20540;-77
2022/10/24 03:37:08;;;;;;;15.95;4.05;;;;;;;13.71;72.65;92862.19;2071494;69;20140;-77
2022/10/24 03:39:34;;;;;;;17.15;5.20;;;;;;;13.77;70.08;92851.19;2071520;69;20148;-76
2022/10/24 03:42:00;;;;;;;16.70;5.85;;;;;;;13.85;68.35;92845.22;2071506;69;20156;-77
2022/10/24 03:44:26;;;;;;;14.07;7.10;;;;;;;13.84;69.20;92855.78;2071500;69;20591;-76
2022/10/24 03:46:51;;;;;;;13.82;6.88;;;;;;;13.80;70.40;92866.91;2071320;69;20146;-77
2022/10/24 03:49:17;;;;;;;13.40;5.60;;;;;;;13.81;69.84;92870.47;2071591;69;20147;-77
2022/10/24 03:51:42;;;;;;;13.60;5.93;;;;;;;13.80;70.23;92869.72;2068175;69;20144;-77
2022/10/24 03:54:09;;;;;;;15.13;6.07;;;;;;;13.82;71.00;92871.91;2068140;69;20138;-76
2022/10/24 03:56:35;;;;;;;14.48;6.75;;;;;;;13.83;70.77;92876.22;2071547;69;20565;-76
2022/10/24 03:59:01;;;;;;;12.52;5.47;;;;;;;13.85;68.89;92862.19;2071742;69;20144;-76
2022/10/24 04:01:27;;;;;;;13.80;4.50;;;;;;;13.86;69.17;92867.19;2071901;69;20139;-76
2022/10/24 04:03:52;;;;;;;13.30;4.55;;;;;;;13.80;71.57;92866.91;2072082;69;20610;-77
2022/10/24 04:06:18;;;;;;;16.13;4.53;;;;;;;13.82;69.33;92878.31;2072081;69;20144;-76
2022/10/24 04:08:43;;;;;;;13.95;5.20;;;;;;;13.77;73.45;92879.47;2071986;69;20186;-76
2022/10/24 04:11:09;;;;;;;12.45;4.25;;;;;;;13.87;72.58;92882.09;2071960;69;20144;-77
2022/10/24 04:13:35;;;;;;;11.23;4.28;;;;;;;13.80;72.82;92888.81;2071960;69;20256;-76
2022/10/24 04:16:02;;;;;;;9.48;4.20;;;;;;;13.84;70.12;92886.91;2071921;69;20150;-76
2022/10/24 04:18:28;;;;;;;19.05;5.00;;;;;;;13.83;71.05;92888.25;2071672;69;20133;-76
2022/10/24 04:20:53;;;;;;;19.85;4.90;;;;;;;13.85;69.53;92885.56;2072042;69;20139;-77
2022/10/24 04:23:19;;;;;;;26.75;14.73;;;;;;;13.43;77.44;92896.09;2072024;69;20575;-76
2022/10/24 04:25:45;;;;;;;32.55;17.40;;;;;;;13.55;76.76;92900.94;2072044;69;20172;-76
2022/10/24 04:28:10;;;;;;;30.25;13.15;;;;;;;13.70;73.73;92898.25;2071970;69;20149;-76
2022/10/24 04:30:36;;;;;;;21.75;9.63;;;;;;;13.75;73.89;92906.94;2071864;69;20132;-76
2022/10/24 04:33:02;;;;;;;21.52;10.20;;;;;;;13.78;72.63;92903.56;2071781;69;20642;-76
2022/10/24 04:35:27;;;;;;;26.23;11.32;;;;;;;13.80;71.32;92911.44;2071958;69;20210;-76
2022/10/24 04:37:53;;;;;;;23.42;10.45;;;;;;;13.82;70.42;92909.44;2071937;69;20153;-76
2022/10/24 04:40:18;;;;;;;19.83;9.38;;;;;;;13.81;71.96;92912.91;2071913;69;20201;-76
2022/10/24 04:42:44;;;;;;;19.27;8.50;;;;;;;13.78;71.07;92912.06;2072042;69;20617;-76
2022/10/24 04:45:10;;;;;;;22.35;7.82;;;;;;;13.77;73.92;92907.03;2071860;69;20154;-76
2022/10/24 04:47:36;;;;;;;14.63;7.43;;;;;;;13.78;72.41;92897.91;2071716;69;20174;-76
2022/10/24 04:50:02;;;;;;;15.63;6.40;;;;;;;13.77;72.24;92899.28;2071835;69;20147;-76
2022/10/24 04:52:28;;;;;;;13.95;6.22;;;;;;;13.76;71.84;92888.59;2071851;69;20136;-76
2022/10/24 04:54:53;;;;;;;21.02;7.43;;;;;;;13.75;73.41;92895.63;2071829;69;20525;-76
2022/10/24 04:57:19;;;;;;;17.20;8.13;;;;;;;13.74;73.54;92894.88;2071895;69;20223;-77
2022/10/24 04:59:44;;;;;;;18.48;7.90;;;;;;;13.56;73.94;92910.88;2071976;69;20187;-76
2022/10/24 05:02:11;;;;;;;17.20;6.63;;;;;;;13.58;74.77;92911.00;2071815;69;20152;-76
2022/10/24 05:04:37;;;;;;;16.58;6.90;;;;;;;13.64;74.14;92914.88;2071730;69;20163;-76
2022/10/24 05:07:03;;;;;;;22.40;13.23;;;;;;;13.68;71.30;92906.59;2071780;69;20144;-76
2022/10/24 05:09:28;;;;;;;24.92;13.65;;;;;;;13.75;71.85;92904.84;2071795;69;20133;-76
2022/10/24 05:11:55;;;;;;;25.00;13.50;;;;;;;13.67;74.03;92904.41;2071816;69;20131;-76
2022/10/24 05:14:21;;;;;;;17.42;9.30;;;;;;;13.70;72.20;92903.16;2071801;69;20255;-76
2022/10/24 05:16:48;;;;;;;16.23;6.97;;;;;;;13.73;72.31;92884.91;2071674;69;20274;-76
2022/10/24 05:19:16;;;;;;;11.57;4.32;;;;;;;13.67;75.75;92885.34;2072365;69;20189;-75
2022/10/24 05:21:41;;;;;;;15.95;4.75;;;;;;;13.76;73.17;92891.41;2068524;69;20312;-76
2022/10/24 05:24:07;;;;;;;14.38;4.43;;;;;;;13.85;72.20;92894.03;2068365;69;20243;-76
2022/10/24 05:26:33;;;;;;;18.80;5.03;;;;;;;13.92;72.22;92904.31;2067926;69;20155;-77
2022/10/24 05:28:58;;;;;;;26.13;8.82;;;;;;;13.87;71.39;92901.91;2068516;69;20153;-76
2022/10/24 05:31:24;;;;;;;19.77;8.43;;;;;;;13.82;74.88;92906.59;2068206;69;20198;-76
2022/10/24 05:33:50;;;;;;;20.30;8.13;;;;;;;13.83;72.58;92910.91;2068555;69;20507;-76
2022/10/24 05:36:15;;;;;;;19.63;8.07;;;;;;;13.83;71.87;92908.06;2067829;69;20554;-76
2022/10/24 05:38:43;;;;;;;20.80;7.85;;;;;;;13.80;74.83;92911.44;2068584;69;20495;-75
2022/10/24 05:41:09;;;;;;;14.68;6.35;;;;;;;13.80;72.42;92902.97;2068403;69;20145;-76
2022/10/24 05:43:35;;;;;;;19.05;7.75;;;;;;;13.83;74.37;92908.06;2068455;69;20163;-76
2022/10/24 05:46:00;;;;;;;19.08;9.93;;;;;;;13.89;72.71;92897.09;2068413;69;20204;-75
2022/10/24 05:48:26;;;;;;;21.58;10.85;;;;;;;13.89;72.72;92899.19;2068322;69;20231;-76
2022/10/24 05:50:56;;;;;;;26.70;15.23;;;;;;;13.87;73.29;92891.31;2067864;69;20152;-76
2022/10/24 05:53:22;;;;;;;21.73;11.43;;;;;;;13.78;74.94;92894.34;2068424;69;20542;-76
2022/10/24 05:55:48;;;;;;;17.35;9.55;;;;;;;13.67;73.73;92893.09;2068367;69;20147;-76
2022/10/24 05:58:13;;;;;;;17.83;9.57;;;;;;;13.71;75.34;92902.53;2068551;69;20147;-76
2022/10/24 06:00:39;;;;;;;20.88;9.95;;;;;;;13.78;74.31;92903.56;2068274;69;20136;-76
2022/10/24 06:03:04;;;;;;;19.90;11.48;;;;;;;13.82;74.29;92895.28;2068164;69;20157;-75
2022/10/24 06:05:33;;;;;;;25.30;15.55;;;;;;;13.84;74.39;92894.69;2068359;69;20145;-75
2022/10/24 06:07:58;;;;;;;27.70;13.75;;;;;;;13.85;74.46;92894.03;2068300;69;20209;-77
2022/10/24 06:10:24;;;;;;;22.98;12.20;;;;;;;13.81;75.47;92899.50;2068242;69;20149;-76
2022/10/24 06:12:50;;;;;;;22.90;12.55;;;;;;;13.80;73.61;92895.19;2068161;69;20148;-76
2022/10/24 06:15:16;;;;;;;27.80;13.15;;;;;;;13.81;73.19;92891.00;2067704;69;20168;-76
2022/10/24 06:17:41;;;;;;;25.48;11.60;;;;;;;13.87;73.34;92876.44;2068199;69;20219;-76
2022/10/24 06:20:08;;;;;;;27.05;13.38;;;;;;;13.92;72.23;92872.44;2068531;69;20583;-77
2022/10/24 06:22:33;;;;;;;28.10;13.50;;;;;;;13.97;71.49;92876.94;2070020;69;20140;-77
2022/10/24 06:25:00;;;;;;;29.65;14.25;;;;;;;13.75;76.86;92881.47;2071889;69;20147;-77
2022/10/24 06:27:26;;;;;;;27.77;14.55;;;;;;;13.88;74.75;92892.03;2071675;69;20183;-76
2022/10/24 06:29:51;;;;;;;27.58;15.00;;;;;;;13.94;74.62;92883.88;2071935;69;20140;-76
2022/10/24 06:32:17;;;;;;;23.65;13.82;;;;;;;13.95;72.91;92900.22;2071617;69;20155;-77
2022/10/24 06:34:43;;;;;;;32.05;14.63;;;;;;;13.92;73.08;92895.06;2071646;69;20144;-77
2022/10/24 06:37:08;;;;;;;28.42;15.65;;;;;;;13.79;74.12;92890.91;2068321;69;20143;-77
2022/10/24 06:39:35;;;;;;;28.63;17.13;;;;;;;13.74;78.29;92877.88;2071629;69;20288;-77
2022/10/24 06:42:01;;;;;;;32.33;14.57;;;;;;;13.68;77.20;92871.91;2071677;69;20601;-78
2022/10/24 06:44:27;;;;;;;34.47;17.67;;;;;;;13.90;73.94;92861.03;2071510;69;20676;-78
2022/10/24 06:46:52;;;;;;;36.80;19.02;;;;;;;14.01;74.59;92857.34;2071436;69;20173;-77
2022/10/24 06:49:18;;;;;;;39.08;17.83;;;;;;;14.05;71.84;92854.72;2071663;69;20136;-75
2022/10/24 06:51:43;;;;;;;25.00;12.77;;;;;;;13.97;77.31;92852.22;2071721;69;20152;-76
2022/10/24 06:54:10;;;;;;;24.45;10.95;;;;;;;14.06;76.07;92861.09;2071552;69;20140;-77
2022/10/24 06:56:35;;;;;;;23.88;11.45;;;;;;;14.18;74.53;92873.06;2071601;69;20172;-77
2022/10/24 06:59:01;;;;;;;15.18;8.50;;;;;;;14.04;74.59;92884.38;2071739;69;20206;-80
2022/10/24 07:01:27;;;;;;;23.83;9.27;;;;;;;14.22;72.90;92887.41;2071628;69;20136;-77
2022/10/24 07:03:53;;;;;;;26.85;9.73;;;;;;;14.22;72.83;92884.59;2071413;69;20144;-76
2022/10/24 07:06:28;;;;;;;21.42;8.15;;;;;;;14.26;73.97;92879.13;2071432;69;20167;-78
2022/10/24 07:08:56;;;;;;;21.23;7.65;;;;;;;14.38;72.38;92884.66;2068199;69;20148;-77
2022/10/24 07:11:22;;;;;;;23.98;11.18;;;;;;;13.77;81.77;92893.63;2071636;69;20140;-77
2022/10/24 07:13:49;;;;;;;21.05;9.82;;;;;;;14.07;78.33;92888.06;2071438;69;20148;-76
2022/10/24 07:16:15;;;;;;;20.05;9.60;;;;;;;14.22;77.98;92896.63;2068125;69;20140;-77
2022/10/24 07:18:42;;;;;;;17.23;7.35;;;;;;;14.26;74.62;92892.56;2071623;69;20172;-77
2022/10/24 07:21:13;;;;;;;19.67;7.40;;;;;;;14.49;73.97;92893.06;2071555;69;20633;-77
2022/10/24 07:23:39;;;;;;;17.60;6.85;;;;;;;14.59;70.70;92887.16;2071647;69;20140;-78
2022/10/24 07:26:11;;;;;;;18.58;7.68;;;;;;;13.92;82.27;92884.50;2071506;69;20594;-77
2022/10/24 07:28:38;;;;;;;15.93;7.05;;;;;;;14.08;80.76;92873.28;2071696;69;20217;-77
2022/10/24 07:31:04;;;;;;;20.08;6.63;;;;;;;14.50;77.06;92876.78;2071558;69;20201;-78
2022/10/24 07:33:30;;;;;;;17.83;6.72;;;;;;;14.62;75.30;92893.66;2071489;69;20596;-76
2022/10/24 07:35:56;;;;;;;20.45;7.70;;;;;;;14.68;73.62;92888.28;2068578;69;20172;-78
2022/10/24 07:38:22;;;;;;;16.67;6.95;;;;;;;14.68;73.00;92893.94;2071877;69;20227;-78
2022/10/24 07:40:47;;;;;;;20.15;7.82;;;;;;;14.58;77.53;92901.94;2071949;69;20230;-79
2022/10/24 07:43:13;;;;;;;20.65;8.90;;;;;;;14.28;80.93;92901.13;2071965;69;20148;-78
2022/10/24 07:45:41;;;;;;;26.98;10.73;;;;;;;14.55;77.37;92903.94;2072025;69;20144;-77
2022/10/24 07:48:06;;;;;;;18.65;7.78;;;;;;;14.63;75.17;92892.28;2071993;69;20574;-77
2022/10/24 07:50:39;;;;;;;20.73;8.25;;;;;;;14.67;72.88;92858.47;2072013;69;20150;-78
2022/10/24 07:53:05;;;;;;;19.30;7.82;;;;;;;14.73;72.49;92856.66;2071983;69;20145;-77
2022/10/24 07:55:31;;;;;;;21.60;7.95;;;;;;;14.87;74.38;92853.03;2068605;69;20214;-80
2022/10/24 07:57:57;;;;;;;21.55;8.55;;;;;;;14.95;75.17;92842.81;2072045;69;20155;-79
2022/10/24 08:00:24;;;;;;;16.67;8.68;;;;;;;14.98;76.18;92846.47;2071957;69;20140;-80
2022/10/24 08:02:50;;;;;;;28.60;7.95;;;;;;;14.98;75.83;92863.47;2071808;69;20149;-80
2022/10/24 08:05:16;;;;;;;15.85;7.38;;;;;;;14.76;75.94;92876.59;2071923;69;20237;-77
2022/10/24 08:07:41;;;;;;;31.80;14.38;;;;;;;14.82;74.70;92879.72;2071803;69;20239;-77
2022/10/24 08:10:11;;;;;;;30.60;13.52;;;;;;;14.85;74.17;92867.84;2071894;69;20171;-78
2022/10/24 08:12:36;;;;;;;15.77;7.70;;;;;;;14.99;74.75;92879.88;2072184;69;20152;-79
2022/10/24 08:15:02;;;;;;;19.10;8.73;;;;;;;15.04;77.46;92883.63;2072090;69;20202;-77
2022/10/24 08:17:28;;;;;;;29.55;9.10;;;;;;;15.16;78.27;92880.63;2068484;69;20674;-77
2022/10/24 08:19:53;;;;;;;17.52;8.60;;;;;;;15.49;76.38;92892.09;2072089;69;20614;-78
2022/10/24 08:22:19;;;;;;;17.35;8.43;;;;;;;15.68;74.03;92882.34;2071838;69;20132;-78
2022/10/24 08:24:45;;;;;;;22.85;10.43;;;;;;;15.74;75.63;92882.59;2071987;69;20144;-76
2022/10/24 08:27:11;;;;;;;24.85;11.48;;;;;;;15.85;74.52;92871.69;2071832;69;20685;-78
2022/10/24 08:29:37;;;;;;;29.67;11.50;;;;;;;15.92;74.10;92877.00;2071858;69;20598;-79
2022/10/24 08:32:05;;;;;;;21.55;8.95;;;;;;;16.04;73.15;92871.13;2071720;69;20231;-79
2022/10/24 08:34:32;;;;;;;26.63;9.75;;;;;;;16.13;71.86;92858.00;2071837;69;20184;-78
2022/10/24 08:36:58;;;;;;;23.73;10.35;;;;;;;16.22;71.39;92848.47;2073018;69;20156;-78
2022/10/24 08:39:23;;;;;;;20.23;8.93;;;;;;;16.35;72.72;92850.41;2071975;69;20245;-77
2022/10/24 08:41:56;;;;;;;26.42;9.23;;;;;;;16.42;71.48;92840.03;2071887;69;20153;-78
2022/10/24 08:44:30;;;;;;;;;;;;;;;16.16;74.00;92839.66;2071980;69;20152;-77
2022/10/24 08:47:07;;;;;;;22.45;10.95;;;;;;;15.87;75.78;92846.97;2071707;69;20064;-77
2022/10/24 08:49:41;;;;;;;18.42;8.80;;;;;;;16.23;73.88;92835.72;2072002;69;20147;-78
2022/10/24 08:52:22;;;;;;;25.60;9.40;;;;;;;16.43;72.10;92847.19;2071847;69;20590;-77
2022/10/24 08:54:50;;;;;;;19.00;7.57;;;;;;;16.40;73.04;92865.53;2071970;69;20231;-76
2022/10/24 08:57:21;;;;;;;24.33;8.68;;;;;;;16.45;72.23;92864.34;2071819;69;20213;-79
2022/10/24 08:59:47;;;;;;;25.10;9.25;;;;;;;16.38;72.73;92866.16;2071914;69;20163;-77
2022/10/24 09:02:25;;;;;;;21.90;7.60;;;;;;;16.41;71.75;92862.03;2068292;69;20609;-78
2022/10/24 09:04:56;;;;;;;19.42;6.70;;;;;;;16.38;71.16;92857.66;2068527;69;20258;-77
2022/10/24 09:07:22;;;;;;;27.50;9.85;;;;;;;16.08;70.80;92859.94;2071640;69;20148;-77
2022/10/24 09:09:51;;;;;;;23.95;9.52;;;;;;;15.95;72.89;92855.13;2071605;69;20137;-77
2022/10/24 09:12:19;;;;;;;17.83;9.25;;;;;;;16.07;73.07;92843.53;2071931;69;20551;-78
2022/10/24 09:14:53;;;;;;;21.42;9.55;;;;;;;16.19;73.35;92824.91;2072035;69;20160;-77
2022/10/24 09:17:33;;;;;;;21.25;8.70;;;;;;;16.34;72.54;92834.03;2068458;69;20140;-76
2022/10/24 09:20:14;;;;;;;21.67;9.20;;;;;;;16.37;71.76;92836.31;2071792;69;20152;-78
2022/10/24 09:22:40;;;;;;;19.65;8.02;;;;;;;16.26;71.48;92840.84;2071802;69;20235;-77
2022/10/24 09:25:10;;;;;;;18.95;8.48;;;;;;;16.30;71.46;92842.38;2068439;69;20194;-76
2022/10/24 09:27:38;;;;;;;16.05;7.97;;;;;;;16.22;72.61;92854.88;2071895;69;20160;-77
2022/10/24 09:30:06;;;;;;;16.83;7.68;;;;;;;16.32;71.69;92839.63;2071789;69;20152;-76
2022/10/24 09:32:35;;;;;;;19.25;7.97;;;;;;;16.30;71.77;92837.41;2071677;69;20243;-76
2022/10/24 09:35:18;;;;;;;20.35;8.30;;;;;;;16.19;71.98;92847.63;2071705;69;20144;-77
2022/10/24 09:37:47;;;;;;;20.95;7.70;;;;;;;16.16;72.04;92842.50;2072026;69;20137;-77
2022/10/24 09:40:16;;;;;;;16.50;6.78;;;;;;;16.24;72.04;92842.84;2071741;69;20146;-77
2022/10/24 09:43:21;;;;;;;17.83;6.97;;;;;;;16.38;71.00;92843.44;2071770;69;20155;-77
2022/10/24 09:45:59;;;;;;;18.95;6.65;;;;;;;16.35;72.16;92844.00;2071821;69;20144;-76
2022/10/24 09:48:54;;;;;;;19.65;7.28;;;;;;;16.35;70.43;92847.56;2071702;69;20235;-76
2022/10/24 09:51:44;;;;;;;18.17;7.55;;;;;;;16.42;70.00;92848.56;2068386;69;20154;-76
2022/10/24 09:54:18;;;;;;;16.45;7.95;;;;;;;16.38;69.85;92851.25;2071876;69;20148;-77
2022/10/24 09:56:53;;;;;;;17.80;8.02;;;;;;;16.32;68.57;92845.31;2071605;69;20814;-77
2022/10/24 09:59:28;;;;;;;26.73;9.80;;;;;;;16.17;70.11;92853.25;2072502;69;20152;-77
2022/10/24 10:02:17;;;;;;;23.40;10.35;;;;;;;16.21;70.33;92846.97;2072584;69;20137;-77
2022/10/24 10:04:44;;;;;;;16.33;8.40;;;;;;;15.83;74.76;92852.47;2068450;69;20159;-78
2022/10/24 10:07:24;;;;;;;23.20;8.23;;;;;;;15.66;75.72;92853.84;2071690;69;20154;-77
2022/10/24 10:09:52;;;;;;;17.65;7.68;;;;;;;15.95;74.06;92864.38;2071744;69;20183;-78
2022/10/24 10:12:33;;;;;;;24.20;7.28;;;;;;;16.02;72.63;92854.00;2071666;69;20239;-77
2022/10/24 10:15:17;;;;;;;25.20;8.00;;;;;;;16.19;71.79;92850.47;2071630;69;20160;-77
2022/10/24 10:18:15;;;;;;;21.02;10.07;;;;;;;15.93;73.55;92843.66;2068256;69;20151;-77
2022/10/24 10:20:42;;;;;;;17.77;8.50;;;;;;;15.88;73.23;92854.09;2071892;69;20624;-77
2022/10/24 10:23:25;;;;;;;20.80;8.05;;;;;;;15.81;75.11;92852.38;2071548;69;20152;-77
2022/10/24 10:26:05;;;;;;;20.48;8.02;;;;;;;15.93;74.99;92855.00;2071426;69;20206;-77
2022/10/24 10:28:34;;;;;;;21.70;9.30;;;;;;;16.07;72.95;92861.31;2072723;69;20685;-76
2022/10/24 10:31:02;;;;;;;17.63;7.45;;;;;;;16.16;71.91;92868.06;2068307;69;20136;-77
2022/10/24 10:33:39;;;;;;;19.33;8.00;;;;;;;16.21;73.44;92864.75;2071496;69;20152;-77
2022/10/24 10:36:17;;;;;;;18.63;8.30;;;;;;;16.11;72.24;92855.81;2071531;69;20151;-77
2022/10/24 10:38:48;;;;;;;21.92;8.00;;;;;;;15.92;73.66;92856.41;2071682;69;20607;-77
2022/10/24 10:41:13;;;;;;;20.90;7.32;;;;;;;16.23;72.99;92842.13;2071585;69;20185;-77
2022/10/24 10:43:42;;;;;;;20.48;8.75;;;;;;;16.44;72.43;92831.59;2068195;69;20156;-77
2022/10/24 10:46:20;;;;;;;20.92;7.90;;;;;;;16.44;72.90;92835.16;2071435;69;20163;-78
2022/10/24 10:48:55;;;;;;;23.45;7.85;;;;;;;16.59;72.20;92824.41;2071631;69;20163;-76
2022/10/24 10:51:32;;;;;;;19.60;7.43;;;;;;;16.76;72.97;92826.53;2068277;69;20678;-79
2022/10/24 10:53:58;;;;;;;17.52;7.30;;;;;;;16.75;73.07;92828.63;2071584;69;20140;-79
2022/10/24 10:56:26;;;;;;;18.08;7.55;;;;;;;16.69;73.84;92828.38;2071552;69;20148;-78
2022/10/24 10:59:27;;;;;;;15.57;7.32;;;;;;;16.71;72.00;92810.66;2071691;69;20156;-78
2022/10/24 11:01:55;;;;;;;16.83;7.85;;;;;;;17.02;74.14;92804.09;2071576;69;20612;-79
2022/10/24 11:04:43;;;;;;;21.13;8.52;;;;;;;17.03;75.49;92803.44;2071568;69;20217;-77
2022/10/24 11:07:23;;;;;;;15.48;7.63;;;;;;;16.86;73.88;92821.25;2071554;69;20152;-77
2022/10/24 11:09:55;;;;;;;20.40;8.32;;;;;;;16.98;74.28;92804.66;2068445;69;20162;-77
2022/10/24 11:12:23;;;;;;;17.35;7.35;;;;;;;17.02;73.70;92804.09;2071460;69;20152;-77
2022/10/24 11:15:02;;;;;;;17.65;7.72;;;;;;;16.94;74.77;92809.47;2071497;69;20218;-76
2022/10/24 11:17:55;;;;;;;20.17;8.02;;;;;;;17.07;73.45;92805.69;2071396;69;20144;-77
2022/10/24 11:20:33;;;;;;;22.65;7.88;;;;;;;16.90;73.23;92806.44;2064001;69;20611;-78
2022/10/24 11:23:42;;;;;;;21.60;7.22;;;;;;;16.98;70.35;92807.50;2071395;69;20148;-75
2022/10/24 11:26:16;;;;;;;18.33;7.43;;;;;;;16.93;73.21;92805.88;2069285;69;20244;-76
2022/10/24 11:29:14;;;;;;;20.27;7.70;;;;;;;16.87;72.86;92797.13;2071000;69;20152;-78
2022/10/24 11:31:46;;;;;;;20.95;7.78;;;;;;;16.81;72.48;92799.72;2068082;69;20602;-78
2022/10/24 11:34:36;;;;;;;26.92;8.30;;;;;;;16.76;72.18;92795.97;2071676;69;20158;-76
2022/10/24 11:37:14;;;;;;;18.00;7.10;;;;;;;16.57;71.81;92795.88;2069122;69;20218;-78